TAM3881 SBPA-SBVT
Flight info
| Callsign | TAM3881 |
|---|---|
| Flight time | N/A |
| Altitude | FL390 |
| Route | KORG2A UBNUT UN857 UDIRA UL206 TODET MIKE1A |
| Aircraft | A20N/M-VGDW/C |
Departure
| Time | N/A |
|---|---|
| Airport | Porto Alegre-Salgado Filho International Airport (SBPA) |
Arrival
| Time | 2026-04-30 19:27 |
|---|---|
| Airport | Eurico de Aguiar Salles International Airport (SBVT) |
| Time | Latitude | Longitude | Altitude | Speed | Heading |
|---|---|---|---|---|---|
| 2026-04-30 17:39 | -28.45799 | -49.38861 | 27255 ft | 398 kts | 57° |
| 2026-04-30 17:41 | -28.35035 | -49.17660 | 30222 ft | 376 kts | 56° |
| 2026-04-30 17:42 | -28.32447 | -49.12583 | 30884 ft | 371 kts | 55° |
| 2026-04-30 17:42 | -28.28385 | -49.04921 | 31058 ft | 387 kts | 51° |
| 2026-04-30 17:43 | -28.25104 | -48.99995 | 31059 ft | 397 kts | 45° |
| 2026-04-30 17:44 | -28.19507 | -48.92824 | 31056 ft | 414 kts | 42° |
| 2026-04-30 17:44 | -28.13570 | -48.85514 | 31055 ft | 428 kts | 42° |
| 2026-04-30 17:46 | -28.03309 | -48.72832 | 31057 ft | 446 kts | 43° |
| 2026-04-30 17:47 | -27.94890 | -48.62370 | 31055 ft | 455 kts | 43° |
| 2026-04-30 17:48 | -27.79847 | -48.43681 | 31054 ft | 464 kts | 43° |
| 2026-04-30 17:50 | -27.62385 | -48.22090 | 31055 ft | 469 kts | 43° |
| 2026-04-30 17:52 | -27.49178 | -48.05842 | 31058 ft | 470 kts | 43° |
| 2026-04-30 17:54 | -27.29241 | -47.81518 | 31066 ft | 471 kts | 43° |
| 2026-04-30 17:56 | -27.11437 | -47.60024 | 31075 ft | 471 kts | 43° |
| 2026-04-30 17:58 | -26.98071 | -47.43950 | 31080 ft | 470 kts | 43° |
| 2026-04-30 18:00 | -26.80227 | -47.22586 | 31086 ft | 470 kts | 43° |
| 2026-04-30 18:01 | -26.69067 | -47.09294 | 31089 ft | 470 kts | 43° |
| 2026-04-30 18:02 | -26.55641 | -46.93415 | 31242 ft | 465 kts | 43° |
| 2026-04-30 18:03 | -26.49138 | -46.85753 | 32299 ft | 442 kts | 42° |
| 2026-04-30 18:04 | -26.42964 | -46.78498 | 33403 ft | 420 kts | 40° |
| 2026-04-30 18:05 | -26.35185 | -46.69374 | 34872 ft | 392 kts | 39° |
| 2026-04-30 18:06 | -26.27970 | -46.60916 | 36326 ft | 361 kts | 37° |
| 2026-04-30 18:07 | -26.21284 | -46.53122 | 37062 ft | 347 kts | 36° |
| 2026-04-30 18:08 | -26.16216 | -46.47273 | 37071 ft | 354 kts | 37° |
| 2026-04-30 18:09 | -26.09278 | -46.39248 | 37076 ft | 366 kts | 38° |
| 2026-04-30 18:10 | -26.02140 | -46.30976 | 37086 ft | 377 kts | 38° |
| 2026-04-30 18:11 | -25.94778 | -46.22448 | 37089 ft | 388 kts | 39° |
| 2026-04-30 18:11 | -25.89117 | -46.15898 | 37089 ft | 396 kts | 39° |
| 2026-04-30 18:13 | -25.79448 | -46.04730 | 37088 ft | 408 kts | 39° |
| 2026-04-30 18:14 | -25.69515 | -45.93281 | 37092 ft | 417 kts | 40° |
| 2026-04-30 18:15 | -25.57314 | -45.79284 | 37094 ft | 426 kts | 40° |
| 2026-04-30 18:16 | -25.49052 | -45.69831 | 37094 ft | 431 kts | 40° |
| 2026-04-30 18:17 | -25.44877 | -45.65061 | 37094 ft | 432 kts | 40° |
| 2026-04-30 18:18 | -25.38589 | -45.57886 | 37094 ft | 435 kts | 40° |
| 2026-04-30 18:18 | -25.34384 | -45.53092 | 37096 ft | 436 kts | 40° |
| 2026-04-30 18:19 | -25.30152 | -45.48274 | 37098 ft | 438 kts | 40° |
| 2026-04-30 18:19 | -25.25920 | -45.43460 | 37097 ft | 439 kts | 40° |
| 2026-04-30 18:20 | -25.21664 | -45.38625 | 37095 ft | 440 kts | 40° |
| 2026-04-30 18:20 | -25.17403 | -45.33788 | 37093 ft | 441 kts | 40° |
| 2026-04-30 18:21 | -25.13128 | -45.28941 | 37092 ft | 442 kts | 40° |
| 2026-04-30 18:21 | -25.08848 | -45.24094 | 37092 ft | 442 kts | 40° |
| 2026-04-30 18:22 | -25.04558 | -45.19241 | 37092 ft | 443 kts | 40° |
| 2026-04-30 18:22 | -24.98108 | -45.11951 | 37091 ft | 444 kts | 40° |
| 2026-04-30 18:23 | -24.93801 | -45.07093 | 37092 ft | 444 kts | 40° |
| 2026-04-30 18:23 | -24.89490 | -45.02236 | 37092 ft | 445 kts | 40° |
| 2026-04-30 18:24 | -24.83023 | -44.94939 | 37083 ft | 445 kts | 37° |
| 2026-04-30 18:25 | -24.78701 | -44.90080 | 37082 ft | 445 kts | 37° |
| 2026-04-30 18:25 | -24.72204 | -44.82796 | 37083 ft | 445 kts | 38° |
| 2026-04-30 18:26 | -24.65716 | -44.75526 | 37082 ft | 445 kts | 37° |
| 2026-04-30 18:27 | -24.59218 | -44.68255 | 37081 ft | 445 kts | 37° |
| 2026-04-30 18:28 | -24.52712 | -44.60984 | 37081 ft | 445 kts | 37° |
| 2026-04-30 18:28 | -24.46183 | -44.53773 | 37081 ft | 445 kts | 37° |
| 2026-04-30 18:29 | -24.37425 | -44.44224 | 37045 ft | 444 kts | 39° |
| 2026-04-30 18:30 | -24.28688 | -44.34716 | 37013 ft | 442 kts | 39° |
| 2026-04-30 18:31 | -24.22172 | -44.27627 | 37014 ft | 440 kts | 39° |
| 2026-04-30 18:32 | -24.15681 | -44.20578 | 37013 ft | 438 kts | 39° |
| 2026-04-30 18:33 | -24.09201 | -44.13553 | 37014 ft | 437 kts | 39° |
| 2026-04-30 18:33 | -24.02743 | -44.06563 | 37014 ft | 436 kts | 39° |
| 2026-04-30 18:34 | -23.96292 | -43.99594 | 37014 ft | 435 kts | 39° |
| 2026-04-30 18:35 | -23.91989 | -43.94953 | 37014 ft | 435 kts | 39° |
| 2026-04-30 18:35 | -23.87700 | -43.90331 | 37014 ft | 434 kts | 39° |
| 2026-04-30 18:36 | -23.81259 | -43.83396 | 37014 ft | 434 kts | 39° |
| 2026-04-30 18:37 | -23.74828 | -43.76482 | 37014 ft | 433 kts | 39° |
| 2026-04-30 18:37 | -23.70533 | -43.71869 | 37014 ft | 433 kts | 39° |
| 2026-04-30 18:38 | -23.66248 | -43.67270 | 37014 ft | 433 kts | 39° |
| 2026-04-30 18:38 | -23.62008 | -43.62635 | 37014 ft | 434 kts | 40° |
| 2026-04-30 18:39 | -23.57808 | -43.57927 | 37013 ft | 434 kts | 41° |
| 2026-04-30 18:39 | -23.53635 | -43.53192 | 37013 ft | 434 kts | 41° |
| 2026-04-30 18:40 | -23.49473 | -43.48444 | 37014 ft | 434 kts | 41° |
| 2026-04-30 18:40 | -23.45325 | -43.43689 | 37014 ft | 434 kts | 41° |
| 2026-04-30 18:41 | -23.41173 | -43.38919 | 37012 ft | 434 kts | 41° |
| 2026-04-30 18:41 | -23.37038 | -43.34165 | 37010 ft | 434 kts | 41° |
| 2026-04-30 18:42 | -23.32889 | -43.29403 | 37008 ft | 434 kts | 41° |
| 2026-04-30 18:42 | -23.26618 | -43.22332 | 37006 ft | 433 kts | 40° |
| 2026-04-30 18:45 | -23.03503 | -42.96627 | 36999 ft | 433 kts | 40° |
| 2026-04-30 18:46 | -22.99307 | -42.91959 | 36997 ft | 434 kts | 41° |
| 2026-04-30 18:46 | -22.95456 | -42.86886 | 36998 ft | 438 kts | 49° |
| 2026-04-30 18:47 | -22.91974 | -42.81455 | 37001 ft | 440 kts | 52° |
| 2026-04-30 18:47 | -22.88658 | -42.75877 | 37000 ft | 441 kts | 53° |
| 2026-04-30 18:48 | -22.85398 | -42.70262 | 36999 ft | 441 kts | 53° |
| 2026-04-30 18:48 | -22.82133 | -42.64663 | 36996 ft | 441 kts | 53° |
| 2026-04-30 18:49 | -22.78819 | -42.59084 | 37004 ft | 440 kts | 52° |
| 2026-04-30 18:49 | -22.75497 | -42.53537 | 37007 ft | 440 kts | 52° |
| 2026-04-30 18:50 | -22.72169 | -42.47995 | 37010 ft | 440 kts | 52° |
| 2026-04-30 18:50 | -22.68841 | -42.42461 | 37011 ft | 440 kts | 52° |
| 2026-04-30 18:51 | -22.65513 | -42.36927 | 37014 ft | 439 kts | 52° |
| 2026-04-30 18:51 | -22.62182 | -42.31388 | 37014 ft | 439 kts | 52° |
| 2026-04-30 18:52 | -22.58671 | -42.26032 | 37011 ft | 434 kts | 44° |
| 2026-04-30 18:52 | -22.54478 | -42.21424 | 37012 ft | 429 kts | 37° |
| 2026-04-30 18:53 | -22.49992 | -42.17203 | 37012 ft | 428 kts | 34° |
| 2026-04-30 18:53 | -22.45409 | -42.13120 | 37004 ft | 427 kts | 34° |
| 2026-04-30 18:54 | -22.40803 | -42.09068 | 37000 ft | 427 kts | 34° |
| 2026-04-30 18:54 | -22.36213 | -42.05023 | 36996 ft | 427 kts | 34° |
| 2026-04-30 18:55 | -22.31619 | -42.00951 | 36995 ft | 427 kts | 34° |
| 2026-04-30 18:55 | -22.24757 | -41.94834 | 36996 ft | 427 kts | 34° |
| 2026-04-30 18:56 | -22.17910 | -41.88706 | 36993 ft | 427 kts | 34° |
| 2026-04-30 18:57 | -22.11065 | -41.82580 | 36995 ft | 427 kts | 35° |
| 2026-04-30 18:57 | -22.06496 | -41.78497 | 36995 ft | 427 kts | 35° |
| 2026-04-30 18:58 | -21.99649 | -41.72382 | 36995 ft | 427 kts | 35° |
| 2026-04-30 18:59 | -21.92796 | -41.66272 | 36995 ft | 427 kts | 35° |
| 2026-04-30 19:00 | -21.83667 | -41.58153 | 36994 ft | 426 kts | 35° |
| 2026-04-30 19:01 | -21.74536 | -41.50040 | 36995 ft | 426 kts | 35° |
| 2026-04-30 19:02 | -21.67704 | -41.43977 | 36993 ft | 426 kts | 36° |
| 2026-04-30 19:03 | -21.58577 | -41.35889 | 36993 ft | 425 kts | 36° |
| 2026-04-30 19:04 | -21.49469 | -41.27829 | 36994 ft | 425 kts | 36° |
| 2026-04-30 19:05 | -21.40348 | -41.19771 | 36995 ft | 425 kts | 35° |
| 2026-04-30 19:06 | -21.31235 | -41.11731 | 36997 ft | 425 kts | 35° |
| 2026-04-30 19:06 | -21.24393 | -41.05711 | 37001 ft | 425 kts | 35° |
| 2026-04-30 19:07 | -21.17546 | -40.99695 | 37003 ft | 425 kts | 35° |
| 2026-04-30 19:08 | -21.08404 | -40.91674 | 36997 ft | 426 kts | 36° |
| 2026-04-30 19:09 | -21.01533 | -40.85655 | 36993 ft | 426 kts | 36° |
| 2026-04-30 19:09 | -20.96949 | -40.81641 | 36993 ft | 426 kts | 36° |
| 2026-04-30 19:10 | -20.87779 | -40.73618 | 36993 ft | 427 kts | 36° |
| 2026-04-30 19:11 | -20.81238 | -40.67513 | 36993 ft | 430 kts | 43° |
| 2026-04-30 19:11 | -20.79241 | -40.65125 | 36472 ft | 441 kts | 46° |
| 2026-04-30 19:12 | -20.77293 | -40.62580 | 35280 ft | 436 kts | 49° |
| 2026-04-30 19:12 | -20.76897 | -40.62037 | 35040 ft | 431 kts | 50° |
| 2026-04-30 19:13 | -20.74052 | -40.57943 | 33153 ft | 404 kts | 52° |
| 2026-04-30 19:13 | -20.70858 | -40.53131 | 30820 ft | 392 kts | 52° |
| 2026-04-30 19:13 | -20.69266 | -40.50800 | 29647 ft | 385 kts | 51° |
| 2026-04-30 19:14 | -20.67612 | -40.48590 | 28474 ft | 378 kts | 49° |
| 2026-04-30 19:14 | -20.66158 | -40.46282 | 27289 ft | 374 kts | 58° |
| 2026-04-30 19:14 | -20.64982 | -40.43827 | 26079 ft | 370 kts | 63° |
| 2026-04-30 19:14 | -20.63940 | -40.41339 | 24854 ft | 365 kts | 65° |
| 2026-04-30 19:15 | -20.62974 | -40.38895 | 23513 ft | 352 kts | 66° |
| 2026-04-30 19:15 | -20.61668 | -40.34022 | 20729 ft | 334 kts | 79° |
| 2026-04-30 19:15 | -20.61298 | -40.31618 | 19339 ft | 326 kts | 82° |
| 2026-04-30 19:16 | -20.60976 | -40.29256 | 17942 ft | 318 kts | 82° |
| 2026-04-30 19:16 | -20.60675 | -40.26954 | 16545 ft | 310 kts | 83° |
| 2026-04-30 19:16 | -20.59920 | -40.22557 | 13737 ft | 296 kts | 68° |
| 2026-04-30 19:17 | -20.58773 | -40.20789 | 12357 ft | 286 kts | 45° |
| 2026-04-30 19:17 | -20.55520 | -40.18690 | 9589 ft | 266 kts | 22° |
| 2026-04-30 19:17 | -20.53736 | -40.18373 | 8193 ft | 259 kts | 0° |
| 2026-04-30 19:18 | -20.50859 | -40.18825 | 5922 ft | 252 kts | 346° |
| 2026-04-30 19:18 | -20.49062 | -40.19398 | 5719 ft | 210 kts | 342° |
| 2026-04-30 19:18 | -20.47675 | -40.19879 | 5762 ft | 217 kts | 342° |
| 2026-04-30 19:19 | -20.46172 | -40.20404 | 5541 ft | 231 kts | 342° |
| 2026-04-30 19:19 | -20.44665 | -40.20933 | 5240 ft | 226 kts | 342° |
| 2026-04-30 19:19 | -20.41741 | -40.21915 | 4532 ft | 216 kts | 342° |
| 2026-04-30 19:20 | -20.40331 | -40.22379 | 4195 ft | 210 kts | 342° |
| 2026-04-30 19:20 | -20.38943 | -40.22838 | 3842 ft | 208 kts | 342° |
| 2026-04-30 19:20 | -20.36193 | -40.23748 | 3008 ft | 208 kts | 343° |
| 2026-04-30 19:21 | -20.34829 | -40.24207 | 2658 ft | 200 kts | 343° |
| 2026-04-30 19:21 | -20.32294 | -40.25204 | 2323 ft | 194 kts | 334° |
| 2026-04-30 19:22 | -20.30163 | -40.26978 | 1931 ft | 199 kts | 318° |
| 2026-04-30 19:22 | -20.26408 | -40.28026 | 259 ft | 203 kts | 13° |
| 2026-04-30 19:23 | -20.23018 | -40.25822 | 576 ft | 192 kts | 40° |
| 2026-04-30 19:24 | -20.21218 | -40.23898 | 826 ft | 187 kts | 38° |
| 2026-04-30 19:24 | -20.19833 | -40.23751 | 439 ft | 209 kts | 347° |
| 2026-04-30 19:24 | -20.18603 | -40.25972 | 890 ft | 199 kts | 256° |
| 2026-04-30 19:25 | -20.21926 | -40.26514 | 678 ft | 169 kts | 197° |
| 2026-04-30 19:26 | -20.23979 | -40.27493 | 338 ft | 143 kts | 204° |
| 2026-04-30 19:26 | -20.25283 | -40.28378 | 23 ft | 125 kts | 210° |
| 2026-04-30 19:26 | -20.25781 | -40.28653 | 23 ft | 62 kts | 214° |
| 2026-04-30 19:27 | -20.25972 | -40.28800 | 23 ft | 12 kts | 223° |
| 2026-04-30 19:27 | -20.25959 | -40.28957 | 23 ft | 13 kts | 354° |
| 2026-04-30 19:28 | -20.25888 | -40.28942 | 23 ft | 7 kts | 329° |
| 2026-04-30 19:28 | -20.25878 | -40.28955 | 23 ft | 0 kts | 300° |